Time;durP1;ratioP1;P1;durP2;ratioP2;P2;SDS_P1;SDS_P2;PMS_P1;PMS_P2;Temp;Humidity;BMP_temperature;BMP_pressure;BME280_temperature;BME280_humidity;BME280_pressure;Samples;Min_cycle;Max_cycle;Signal;HPM_P1;HPM_P2
2023/05/10 00:00:40;;;;;;;8.55;1.80;;;16.70;65.00;;;;;;4981555;28;20046;-35
2023/05/10 00:03:07;;;;;;;2.10;1.38;;;16.70;64.90;;;;;;4984671;28;20058;-34
2023/05/10 00:05:35;;;;;;;1.40;1.30;;;16.70;64.60;;;;;;4984487;28;20516;-35
2023/05/10 00:08:02;;;;;;;1.52;1.25;;;16.70;64.60;;;;;;4983268;28;20062;-38
2023/05/10 00:10:31;;;;;;;1.05;0.95;;;16.70;64.70;;;;;;4982398;28;20054;-38
2023/05/10 00:12:58;;;;;;;1.70;1.60;;;16.70;64.80;;;;;;4983281;28;20054;-34
2023/05/10 00:15:25;;;;;;;2.65;1.50;;;16.70;64.80;;;;;;4982305;28;20418;-35
2023/05/10 00:17:52;;;;;;;2.10;1.38;;;16.70;64.80;;;;;;4982658;28;20050;-34
2023/05/10 00:20:20;;;;;;;1.25;1.15;;;16.70;64.60;;;;;;4984924;28;20078;-35
2023/05/10 00:22:47;;;;;;;2.70;1.45;;;16.70;64.60;;;;;;4984383;28;20057;-34
2023/05/10 00:25:14;;;;;;;1.58;1.48;;;16.70;64.60;;;;;;4982563;28;20054;-35
2023/05/10 00:27:43;;;;;;;1.40;1.25;;;16.70;64.60;;;;;;4982685;28;20053;-34
2023/05/10 00:30:11;;;;;;;2.40;1.77;;;16.70;64.50;;;;;;4983117;28;20054;-35
2023/05/10 00:32:38;;;;;;;1.55;1.45;;;16.70;64.50;;;;;;4983554;28;20060;-34
2023/05/10 00:35:06;;;;;;;1.80;1.33;;;16.70;64.50;;;;;;4983938;28;20053;-35
2023/05/10 00:37:33;;;;;;;4.53;1.38;;;16.70;64.40;;;;;;4981650;28;20047;-34
2023/05/10 00:40:00;;;;;;;2.92;1.60;;;16.70;64.50;;;;;;4982431;28;20399;-35
2023/05/10 00:42:28;;;;;;;2.72;1.30;;;16.60;64.40;;;;;;4982754;28;20085;-35
2023/05/10 00:44:57;;;;;;;2.58;1.50;;;16.70;64.50;;;;;;4980776;28;20054;-35
2023/05/10 00:47:24;;;;;;;1.63;1.33;;;16.70;64.60;;;;;;4982713;28;20061;-35
2023/05/10 00:49:52;;;;;;;2.53;1.90;;;16.70;64.60;;;;;;4983475;28;20062;-37
2023/05/10 00:52:20;;;;;;;2.65;2.00;;;16.70;64.60;;;;;;4981740;28;20053;-39
2023/05/10 00:54:48;;;;;;;1.63;1.38;;;16.70;64.50;;;;;;4982686;28;20053;-35
2023/05/10 00:57:15;;;;;;;1.67;1.58;;;16.70;65.20;;;;;;4982644;28;20054;-34
2023/05/10 00:59:43;;;;;;;3.78;1.90;;;16.70;64.50;;;;;;4981334;28;20050;-35
2023/05/10 01:02:12;;;;;;;2.83;1.90;;;16.70;64.50;;;;;;4999036;23;20058;-43
2023/05/10 01:04:40;;;;;;;2.35;1.88;;;16.70;64.60;;;;;;4980700;28;20058;-44
2023/05/10 01:07:08;;;;;;;2.30;2.10;;;16.70;64.60;;;;;;4980631;28;21254;-45
2023/05/10 01:09:35;;;;;;;2.30;2.10;;;16.70;64.60;;;;;;4979192;28;20497;-44
2023/05/10 01:12:03;;;;;;;3.45;2.53;;;16.70;64.60;;;;;;4975840;28;20054;-43
2023/05/10 01:14:31;;;;;;;2.22;2.03;;;16.70;64.50;;;;;;4977684;28;20494;-43
2023/05/10 01:16:58;;;;;;;2.35;2.15;;;16.80;64.60;;;;;;4977285;28;20063;-44
2023/05/10 01:19:29;;;;;;;2.90;2.70;;;16.70;64.40;;;;;;4978985;28;20050;-44
2023/05/10 01:22:03;;;;;;;4.22;2.80;;;16.80;64.50;;;;;;4977485;28;20054;-43
2023/05/10 01:24:50;;;;;;;3.05;2.42;;;16.80;64.40;;;;;;4976845;28;20057;-44
2023/05/10 01:27:46;;;;;;;2.53;2.08;;;16.80;64.40;;;;;;4982324;28;20054;-45
2023/05/10 01:30:41;;;;;;;2.33;2.03;;;16.80;64.30;;;;;;4982254;28;20636;-45
2023/05/10 01:33:16;;;;;;;1.60;1.50;;;16.80;64.30;;;;;;4983054;28;20073;-44
2023/05/10 01:35:48;;;;;;;1.80;1.70;;;16.80;64.20;;;;;;4981591;28;20469;-45
2023/05/10 01:38:21;;;;;;;1.50;1.40;;;16.80;64.10;;;;;;4981008;28;20062;-44
2023/05/10 01:41:01;;;;;;;3.08;1.40;;;16.80;64.10;;;;;;4982752;28;20046;-44
2023/05/10 01:43:34;;;;;;;1.60;1.23;;;16.80;64.10;;;;;;4981323;28;20493;-44
2023/05/10 01:46:10;;;;;;;1.20;1.10;;;16.80;64.10;;;;;;4979059;28;20054;-45
2023/05/10 01:48:46;;;;;;;1.20;1.10;;;16.80;64.10;;;;;;4980456;28;20605;-44
2023/05/10 01:51:16;;;;;;;1.25;1.13;;;16.70;64.10;;;;;;4982616;28;20506;-46
2023/05/10 01:53:45;;;;;;;1.52;1.10;;;16.70;64.10;;;;;;4983138;28;20667;-44
2023/05/10 01:56:13;;;;;;;1.10;1.00;;;16.70;64.10;;;;;;4982637;28;20050;-45
2023/05/10 01:58:45;;;;;;;2.15;1.10;;;16.70;64.40;;;;;;4982111;28;20065;-44
2023/05/10 02:01:14;;;;;;;1.00;0.90;;;16.70;64.20;;;;;;4979066;28;20053;-44
2023/05/10 02:03:44;;;;;;;0.77;0.70;;;16.70;64.20;;;;;;4979954;28;20057;-43
2023/05/10 02:06:13;;;;;;;0.98;0.77;;;16.70;64.20;;;;;;4980748;28;20058;-43
2023/05/10 02:08:42;;;;;;;1.23;0.90;;;16.70;64.20;;;;;;4979731;28;20054;-44
2023/05/10 02:11:10;;;;;;;1.25;0.70;;;16.70;64.30;;;;;;4982818;28;20061;-45
2023/05/10 02:13:39;;;;;;;0.98;0.82;;;16.70;64.30;;;;;;4980669;28;20054;-46
2023/05/10 02:16:08;;;;;;;2.08;0.70;;;16.60;64.30;;;;;;4980618;28;20077;-46
2023/05/10 02:18:36;;;;;;;1.50;0.90;;;16.60;64.40;;;;;;4982013;28;20558;-45
2023/05/10 02:21:05;;;;;;;1.60;0.90;;;16.60;64.50;;;;;;4980192;28;20050;-45
2023/05/10 02:23:33;;;;;;;5.63;0.80;;;16.60;64.60;;;;;;4979934;28;20654;-44
2023/05/10 02:26:02;;;;;;;1.10;0.90;;;16.60;64.60;;;;;;4980984;28;20054;-44
2023/05/10 02:28:31;;;;;;;1.00;0.90;;;16.60;64.70;;;;;;4979363;28;20537;-45
2023/05/10 02:30:58;;;;;;;1.30;1.10;;;16.60;64.80;;;;;;4978082;28;20062;-44
2023/05/10 02:33:27;;;;;;;1.50;1.15;;;16.60;64.70;;;;;;4979065;28;20054;-46
2023/05/10 02:35:55;;;;;;;1.75;1.30;;;16.60;64.70;;;;;;4980139;28;20059;-45
2023/05/10 02:38:25;;;;;;;2.20;1.05;;;16.60;64.70;;;;;;4982482;28;20069;-44
2023/05/10 02:40:53;;;;;;;3.70;1.02;;;16.50;64.60;;;;;;4981886;28;20513;-46
2023/05/10 02:43:23;;;;;;;1.08;0.90;;;16.50;64.50;;;;;;4982467;28;20065;-45
2023/05/10 02:45:51;;;;;;;6.85;1.00;;;16.60;65.30;;;;;;4977684;28;20204;-47
2023/05/10 02:48:18;;;;;;;0.95;0.85;;;16.50;64.50;;;;;;4980457;28;20066;-45
2023/05/10 02:50:48;;;;;;;2.33;1.05;;;16.50;64.60;;;;;;4978053;28;20046;-45
2023/05/10 02:53:20;;;;;;;0.73;0.60;;;16.50;64.60;;;;;;4980361;28;20057;-46
2023/05/10 02:55:52;;;;;;;1.38;0.80;;;16.50;64.60;;;;;;4980018;28;20413;-44
2023/05/10 02:58:20;;;;;;;1.05;0.90;;;16.50;64.60;;;;;;4982891;28;20050;-44
2023/05/10 03:00:47;;;;;;;0.93;0.82;;;16.50;64.60;;;;;;4978033;28;20422;-45
2023/05/10 03:03:15;;;;;;;1.00;0.90;;;16.50;64.60;;;;;;4982853;28;20057;-46
2023/05/10 03:05:42;;;;;;;1.05;0.80;;;16.40;64.60;;;;;;4981226;28;20054;-44
2023/05/10 03:08:10;;;;;;;1.38;1.00;;;16.40;64.60;;;;;;4980071;28;20465;-44
2023/05/10 03:10:48;;;;;;;1.58;1.20;;;16.40;64.60;;;;;;4977349;28;20050;-47
2023/05/10 03:13:35;;;;;;;2.70;1.40;;;16.40;64.70;;;;;;4980847;28;20522;-45
2023/05/10 03:16:08;;;;;;;1.45;1.20;;;16.40;64.80;;;;;;4978691;28;20058;-45
2023/05/10 03:18:44;;;;;;;1.17;1.08;;;16.40;64.80;;;;;;4978478;28;20053;-44
2023/05/10 03:21:15;;;;;;;2.67;1.77;;;16.40;64.80;;;;;;4980102;28;20050;-43
2023/05/10 03:23:45;;;;;;;3.38;2.00;;;16.40;64.80;;;;;;4982197;28;20057;-44
2023/05/10 03:26:18;;;;;;;4.32;1.80;;;16.40;64.90;;;;;;4977936;28;20046;-48
2023/05/10 03:28:48;;;;;;;2.92;1.75;;;16.40;64.90;;;;;;4980231;28;20069;-44
2023/05/10 03:31:15;;;;;;;3.00;2.38;;;16.40;65.00;;;;;;4972923;28;20493;-47
2023/05/10 03:33:48;;;;;;;3.53;2.00;;;16.40;65.00;;;;;;4976463;28;20593;-44
2023/05/10 03:36:15;;;;;;;4.82;1.70;;;16.40;65.10;;;;;;4978949;28;20046;-45
2023/05/10 03:38:43;;;;;;;2.22;1.77;;;16.40;65.10;;;;;;4979249;28;20454;-44
2023/05/10 03:41:10;;;;;;;2.97;1.73;;;16.40;65.00;;;;;;4982781;28;20054;-44
2023/05/10 03:43:38;;;;;;;1.92;1.80;;;16.40;65.00;;;;;;4983410;28;20360;-46
2023/05/10 03:46:07;;;;;;;1.95;1.70;;;16.40;65.00;;;;;;4982044;28;20058;-43
2023/05/10 03:48:34;;;;;;;3.60;2.70;;;16.40;65.10;;;;;;4978725;28;20430;-46
2023/05/10 03:51:01;;;;;;;4.72;2.78;;;16.40;65.10;;;;;;4978912;28;20057;-43
2023/05/10 03:53:29;;;;;;;4.93;3.20;;;16.50;65.20;;;;;;4980513;28;20065;-44
2023/05/10 03:55:56;;;;;;;4.18;3.25;;;16.50;65.20;;;;;;4978881;28;20058;-44
2023/05/10 03:58:23;;;;;;;5.80;4.03;;;16.50;65.20;;;;;;4978296;28;20521;-47
2023/05/10 04:00:51;;;;;;;4.95;3.70;;;16.50;65.30;;;;;;4977907;28;20544;-44
2023/05/10 04:03:20;;;;;;;4.60;3.50;;;16.40;65.20;;;;;;4978735;28;20054;-44
2023/05/10 04:05:47;;;;;;;6.93;4.55;;;16.50;65.30;;;;;;4978176;28;20069;-44
2023/05/10 04:08:16;;;;;;;7.78;4.63;;;16.50;65.20;;;;;;4978664;28;20478;-43
2023/05/10 04:10:43;;;;;;;5.95;4.15;;;16.50;65.20;;;;;;4981429;28;20058;-47
2023/05/10 04:13:10;;;;;;;6.43;4.90;;;16.50;65.20;;;;;;4980415;28;20058;-43
2023/05/10 04:15:38;;;;;;;6.82;4.60;;;16.50;65.10;;;;;;4975733;28;20050;-43
2023/05/10 04:18:05;;;;;;;7.25;5.13;;;16.50;65.10;;;;;;4969261;28;20911;-43
2023/05/10 04:20:34;;;;;;;7.03;5.32;;;16.50;65.10;;;;;;4976057;28;20050;-47
2023/05/10 04:23:02;;;;;;;8.55;5.45;;;16.50;65.20;;;;;;4977664;28;20896;-44
2023/05/10 04:25:29;;;;;;;7.68;5.55;;;16.50;65.20;;;;;;4978633;28;20054;-45
2023/05/10 04:27:56;;;;;;;8.75;6.07;;;16.50;65.20;;;;;;4978537;28;20390;-44
2023/05/10 04:30:23;;;;;;;7.30;5.30;;;16.50;65.20;;;;;;4978095;28;20058;-44
2023/05/10 04:32:50;;;;;;;10.65;5.95;;;16.50;65.20;;;;;;4978360;28;20070;-45
2023/05/10 04:35:18;;;;;;;10.50;6.38;;;16.50;65.30;;;;;;4981080;28;20061;-44
2023/05/10 04:37:46;;;;;;;13.10;7.75;;;16.50;65.30;;;;;;4979847;28;20506;-46
2023/05/10 04:40:14;;;;;;;11.23;7.20;;;16.50;65.30;;;;;;4978158;28;20058;-45
2023/05/10 04:42:42;;;;;;;15.23;9.40;;;16.50;65.40;;;;;;4978290;28;20061;-43
2023/05/10 04:45:10;;;;;;;15.82;9.02;;;16.50;65.30;;;;;;4977315;28;20061;-43
2023/05/10 04:47:37;;;;;;;13.45;8.45;;;16.50;65.30;;;;;;4977443;28;20054;-44
2023/05/10 04:50:06;;;;;;;15.18;8.73;;;16.40;65.20;;;;;;4974991;28;20058;-45
2023/05/10 04:52:33;;;;;;;12.50;7.22;;;16.40;65.40;;;;;;4974541;28;20512;-47
2023/05/10 04:55:01;;;;;;;11.18;7.45;;;16.40;65.50;;;;;;4977587;28;20298;-44
2023/05/10 04:57:29;;;;;;;12.63;7.85;;;16.40;65.70;;;;;;4977060;28;20058;-44
2023/05/10 04:59:56;;;;;;;15.02;9.07;;;16.40;65.90;;;;;;4978329;28;20057;-47
2023/05/10 05:02:23;;;;;;;13.82;8.60;;;16.40;66.00;;;;;;4977539;28;20054;-47
2023/05/10 05:04:50;;;;;;;12.98;8.43;;;16.40;66.10;;;;;;4976707;28;20050;-50
2023/05/10 05:07:18;;;;;;;11.57;8.65;;;16.40;66.20;;;;;;4977186;28;20074;-44
2023/05/10 05:09:45;;;;;;;11.90;7.68;;;16.40;66.20;;;;;;4976013;28;20533;-47
2023/05/10 05:12:14;;;;;;;12.90;9.45;;;16.40;66.20;;;;;;4977171;28;20134;-47
2023/05/10 05:14:41;;;;;;;11.93;8.15;;;16.40;66.20;;;;;;4975965;28;20604;-44
2023/05/10 05:17:09;;;;;;;15.07;8.57;;;16.40;66.20;;;;;;4975975;28;20050;-48
2023/05/10 05:19:36;;;;;;;10.98;8.45;;;16.40;66.20;;;;;;4977705;28;20058;-45
2023/05/10 05:22:03;;;;;;;10.40;8.02;;;16.40;66.30;;;;;;4977411;28;20061;-45
2023/05/10 05:24:36;;;;;;;11.07;8.30;;;16.40;66.40;;;;;;4976312;28;20161;-47
2023/05/10 05:27:03;;;;;;;11.48;8.70;;;16.40;66.50;;;;;;4974659;28;20057;-46
2023/05/10 05:29:32;;;;;;;12.75;9.38;;;16.40;66.50;;;;;;4978591;28;20069;-47
2023/05/10 05:31:59;;;;;;;15.68;8.93;;;16.50;66.60;;;;;;4975447;28;20050;-45
2023/05/10 05:34:26;;;;;;;12.68;8.55;;;16.50;66.70;;;;;;4977624;28;20142;-46
2023/05/10 05:36:54;;;;;;;12.75;8.38;;;16.50;66.70;;;;;;4973882;28;20426;-45
2023/05/10 05:39:21;;;;;;;14.77;8.90;;;16.50;66.80;;;;;;4979148;28;20069;-47
2023/05/10 05:41:48;;;;;;;11.55;8.30;;;16.50;66.80;;;;;;4978452;28;20062;-47
2023/05/10 05:44:15;;;;;;;13.85;10.00;;;16.60;66.90;;;;;;4979030;28;20059;-47
2023/05/10 05:46:44;;;;;;;12.43;9.23;;;16.60;66.70;;;;;;4974182;28;20062;-48
2023/05/10 05:49:12;;;;;;;13.00;9.18;;;16.60;66.70;;;;;;4979242;28;20054;-46
2023/05/10 05:51:39;;;;;;;14.93;9.00;;;16.70;66.70;;;;;;4975935;28;20058;-47
2023/05/10 05:54:06;;;;;;;11.85;8.80;;;16.70;66.60;;;;;;4977403;28;20489;-47
2023/05/10 05:56:33;;;;;;;11.73;8.85;;;16.70;66.60;;;;;;4977148;28;20051;-45
2023/05/10 05:59:01;;;;;;;12.60;8.68;;;16.80;66.70;;;;;;4978461;28;20050;-46
2023/05/10 06:01:28;;;;;;;12.55;8.38;;;16.80;66.70;;;;;;4975385;28;20054;-47
2023/05/10 06:03:56;;;;;;;9.18;7.07;;;16.80;66.70;;;;;;4978784;28;20053;-47
2023/05/10 06:06:24;;;;;;;10.88;7.43;;;16.90;66.80;;;;;;4975836;28;20509;-47
2023/05/10 06:08:51;;;;;;;8.38;6.38;;;16.90;66.70;;;;;;4977781;28;20052;-47
2023/05/10 06:11:18;;;;;;;9.65;6.95;;;16.90;66.60;;;;;;4976686;28;20387;-46
2023/05/10 06:13:45;;;;;;;10.02;6.53;;;16.90;66.60;;;;;;4978895;28;20057;-45
2023/05/10 06:16:13;;;;;;;7.45;5.85;;;17.00;66.60;;;;;;4979402;28;20051;-47
2023/05/10 06:18:40;;;;;;;9.52;6.85;;;17.00;66.40;;;;;;4980781;28;20141;-47
2023/05/10 06:21:09;;;;;;;7.90;5.32;;;17.00;66.30;;;;;;4982259;28;20050;-46
2023/05/10 06:23:36;;;;;;;13.13;6.60;;;17.10;66.40;;;;;;4980855;28;20054;-49
2023/05/10 06:26:04;;;;;;;7.95;5.97;;;17.10;66.30;;;;;;4976001;28;20077;-48
2023/05/10 06:28:32;;;;;;;7.95;6.32;;;17.10;66.30;;;;;;4978152;28;20046;-46
2023/05/10 06:30:59;;;;;;;8.23;5.20;;;17.10;66.30;;;;;;4977568;28;20050;-46
2023/05/10 06:33:27;;;;;;;9.20;6.13;;;17.10;67.00;;;;;;4978466;28;20054;-45
2023/05/10 06:35:54;;;;;;;8.70;5.90;;;17.20;66.30;;;;;;4979402;28;20051;-45
2023/05/10 06:38:23;;;;;;;6.82;5.97;;;17.20;66.20;;;;;;4979188;28;20062;-46
2023/05/10 06:40:50;;;;;;;7.35;5.40;;;17.20;66.30;;;;;;4982773;28;20058;-45
2023/05/10 06:43:17;;;;;;;9.85;6.20;;;17.20;66.10;;;;;;4981314;28;20054;-48
2023/05/10 06:45:45;;;;;;;8.13;6.03;;;17.30;66.10;;;;;;4978798;28;20059;-47
2023/05/10 06:48:12;;;;;;;7.22;5.18;;;17.30;65.90;;;;;;4979558;28;20500;-46
2023/05/10 06:50:39;;;;;;;8.07;5.60;;;17.30;65.80;;;;;;4972254;28;20065;-45
2023/05/10 06:53:07;;;;;;;9.20;6.10;;;17.40;65.90;;;;;;4978203;28;20047;-45
2023/05/10 06:55:36;;;;;;;7.80;5.53;;;17.40;66.10;;;;;;4976099;28;20109;-46
2023/05/10 06:58:03;;;;;;;7.72;5.35;;;17.40;66.10;;;;;;4983017;28;20058;-46
2023/05/10 07:00:30;;;;;;;7.68;5.38;;;17.40;65.70;;;;;;4981919;28;20399;-46
2023/05/10 07:02:58;;;;;;;6.93;5.47;;;17.40;65.30;;;;;;4985324;28;20061;-47
2023/05/10 07:05:27;;;;;;;7.50;5.40;;;17.50;64.90;;;;;;4969556;28;20058;-46
2023/05/10 07:07:54;;;;;;;7.35;5.32;;;17.50;64.80;;;;;;4977038;28;20053;-47
2023/05/10 07:10:21;;;;;;;8.50;5.68;;;17.50;64.70;;;;;;4968138;28;20061;-48
2023/05/10 07:12:50;;;;;;;6.60;4.93;;;17.50;64.30;;;;;;4972809;28;20061;-49
2023/05/10 07:15:17;;;;;;;8.38;5.60;;;17.50;64.30;;;;;;4975674;28;20055;-46
2023/05/10 07:17:45;;;;;;;7.90;4.57;;;17.50;64.20;;;;;;4971339;28;20157;-46
2023/05/10 07:20:13;;;;;;;7.90;5.30;;;17.50;64.10;;;;;;4975914;28;20054;-46
2023/05/10 07:22:40;;;;;;;7.45;5.25;;;17.50;63.90;;;;;;4975507;28;20066;-49
2023/05/10 07:25:08;;;;;;;5.45;4.55;;;17.50;63.70;;;;;;4975370;28;20054;-47
2023/05/10 07:27:35;;;;;;;8.80;5.07;;;17.50;63.70;;;;;;4971417;28;20057;-46
2023/05/10 07:30:04;;;;;;;7.05;5.07;;;17.50;63.80;;;;;;4975383;28;21408;-48
2023/05/10 07:32:32;;;;;;;7.13;4.25;;;17.50;64.00;;;;;;4975253;28;20065;-46
2023/05/10 07:34:59;;;;;;;5.80;4.22;;;17.50;64.20;;;;;;4975279;28;20050;-45
2023/05/10 07:37:26;;;;;;;5.25;3.88;;;17.50;64.30;;;;;;4974996;28;20502;-47
2023/05/10 07:39:53;;;;;;;6.32;3.70;;;17.50;64.30;;;;;;4976746;28;20054;-44
2023/05/10 07:42:20;;;;;;;6.38;3.80;;;17.50;64.30;;;;;;4971591;28;20057;-45
2023/05/10 07:44:49;;;;;;;5.18;3.28;;;17.50;64.30;;;;;;4975464;28;20054;-46
2023/05/10 07:47:17;;;;;;;7.65;3.25;;;17.60;64.40;;;;;;4973049;28;20062;-46
2023/05/10 07:49:45;;;;;;;8.98;3.80;;;17.60;64.60;;;;;;4970429;28;20054;-47
2023/05/10 07:52:12;;;;;;;6.88;3.65;;;17.60;64.70;;;;;;4975515;28;20065;-46
2023/05/10 07:54:39;;;;;;;5.47;2.92;;;17.60;64.70;;;;;;4976175;28;20654;-46
2023/05/10 07:57:06;;;;;;;4.70;3.33;;;17.70;64.80;;;;;;4976864;28;20054;-48
2023/05/10 07:59:33;;;;;;;3.78;2.70;;;17.70;64.50;;;;;;4969907;28;20395;-47
2023/05/10 08:02:01;;;;;;;5.32;2.10;;;17.80;64.00;;;;;;4975254;28;20073;-45
2023/05/10 08:04:29;;;;;;;3.22;2.00;;;17.80;63.60;;;;;;4975585;28;20054;-44
2023/05/10 08:06:56;;;;;;;3.80;2.00;;;17.80;63.30;;;;;;4977560;28;20556;-46
2023/05/10 08:09:24;;;;;;;2.85;1.95;;;17.80;63.20;;;;;;4974629;28;20511;-46
2023/05/10 08:11:51;;;;;;;2.90;1.88;;;17.90;63.10;;;;;;4974538;28;20050;-46
2023/05/10 08:14:18;;;;;;;3.67;1.88;;;17.90;63.80;;;;;;4976749;28;20440;-46
2023/05/10 08:16:45;;;;;;;2.53;1.80;;;18.00;63.20;;;;;;4975396;28;20054;-47
2023/05/10 08:19:13;;;;;;;2.50;1.90;;;18.00;63.20;;;;;;4973798;28;20061;-47
2023/05/10 08:21:42;;;;;;;1.83;1.65;;;18.00;63.20;;;;;;4971889;28;20066;-46
2023/05/10 08:24:09;;;;;;;4.68;2.38;;;18.10;63.20;;;;;;4977732;28;20061;-45
2023/05/10 08:26:36;;;;;;;3.33;2.47;;;18.10;63.20;;;;;;4972505;28;20069;-45
2023/05/10 08:29:03;;;;;;;3.17;1.70;;;18.10;63.00;;;;;;4973669;28;20058;-45
2023/05/10 08:31:31;;;;;;;3.53;1.80;;;18.10;63.00;;;;;;4973606;28;20501;-52
2023/05/10 08:33:58;;;;;;;2.88;1.98;;;18.20;63.00;;;;;;4974005;28;20054;-48
2023/05/10 08:36:26;;;;;;;5.28;1.92;;;18.20;63.00;;;;;;4973744;28;20430;-48
2023/05/10 08:38:55;;;;;;;3.90;2.38;;;18.30;62.80;;;;;;4977880;28;20050;-48
2023/05/10 08:41:23;;;;;;;3.53;2.03;;;18.30;62.40;;;;;;4976384;28;20057;-47
2023/05/10 08:43:52;;;;;;;4.15;2.17;;;18.30;61.80;;;;;;4974203;28;20050;-48
2023/05/10 08:46:21;;;;;;;3.90;2.30;;;18.30;61.80;;;;;;4969850;28;20069;-48
2023/05/10 08:48:50;;;;;;;3.25;2.20;;;18.30;62.00;;;;;;4978901;28;20509;-47
2023/05/10 08:51:21;;;;;;;4.70;2.72;;;18.30;62.00;;;;;;4975813;28;20054;-47
2023/05/10 08:53:48;;;;;;;6.90;2.63;;;18.30;60.90;;;;;;4976948;28;20059;-45
2023/05/10 08:56:19;;;;;;;5.38;2.72;;;18.20;60.70;;;;;;4975998;28;20140;-46
2023/05/10 08:58:46;;;;;;;5.03;2.95;;;18.20;61.40;;;;;;4977780;28;20398;-46
2023/05/10 09:01:15;;;;;;;6.35;2.92;;;18.20;61.60;;;;;;4972364;28;20429;-45
2023/05/10 09:03:43;;;;;;;3.78;2.28;;;18.20;61.20;;;;;;4974196;28;20057;-48
2023/05/10 09:06:14;;;;;;;8.35;2.70;;;18.20;61.30;;;;;;4969200;28;20050;-46
2023/05/10 09:08:42;;;;;;;4.53;2.28;;;18.10;61.60;;;;;;4972148;28;20522;-45
2023/05/10 09:11:10;;;;;;;3.67;2.22;;;18.10;61.70;;;;;;4977410;28;20061;-45
2023/05/10 09:13:39;;;;;;;8.85;2.38;;;18.20;62.00;;;;;;4977058;28;20494;-46
2023/05/10 09:16:07;;;;;;;3.47;2.28;;;18.20;62.20;;;;;;4975211;28;20054;-46
2023/05/10 09:18:34;;;;;;;3.28;2.03;;;18.20;62.20;;;;;;4977269;28;20066;-46
2023/05/10 09:21:30;;;;;;;5.65;2.45;;;18.20;62.10;;;;;;4987843;28;20418;-46
2023/05/10 09:23:57;;;;;;;5.55;2.22;;;18.20;62.10;;;;;;4977557;28;20054;-47
2023/05/10 09:26:25;;;;;;;4.47;2.80;;;18.20;61.60;;;;;;4967017;28;20058;-45
2023/05/10 09:28:55;;;;;;;3.90;3.22;;;18.20;61.50;;;;;;4971991;28;20474;-46
2023/05/10 09:31:23;;;;;;;3.85;2.35;;;18.10;61.50;;;;;;4975942;28;20065;-45
2023/05/10 09:33:51;;;;;;;4.97;2.60;;;18.10;61.40;;;;;;4976220;28;20150;-50
2023/05/10 09:36:19;;;;;;;7.72;2.90;;;18.10;62.30;;;;;;4976749;28;20058;-46
2023/05/10 09:38:47;;;;;;;5.63;2.15;;;18.10;61.80;;;;;;4975401;28;20054;-49
2023/05/10 09:41:18;;;;;;;2.83;1.75;;;18.00;61.90;;;;;;4972725;28;20058;-45
2023/05/10 09:43:46;;;;;;;14.15;2.67;;;18.00;62.00;;;;;;4970922;28;20055;-46
2023/05/10 09:46:15;;;;;;;2.83;1.23;;;18.00;61.80;;;;;;4977046;28;20042;-47
2023/05/10 09:48:44;;;;;;;5.20;1.80;;;17.90;61.30;;;;;;4982321;28;20117;-47
2023/05/10 09:51:11;;;;;;;2.30;1.50;;;17.90;61.00;;;;;;4983038;28;20054;-45
2023/05/10 09:53:38;;;;;;;2.33;0.93;;;17.80;61.20;;;;;;4982344;28;20081;-46
2023/05/10 09:56:06;;;;;;;3.20;1.10;;;17.70;61.50;;;;;;4981935;28;20592;-46
2023/05/10 09:58:37;;;;;;;3.95;0.90;;;17.60;61.70;;;;;;4981307;28;20994;-44
2023/05/10 10:01:05;;;;;;;2.08;1.02;;;17.60;62.10;;;;;;4980347;28;20065;-45
2023/05/10 10:03:33;;;;;;;1.92;1.00;;;17.50;62.50;;;;;;4982529;28;20062;-45
2023/05/10 10:06:01;;;;;;;1.10;0.80;;;17.50;63.10;;;;;;4978585;28;20057;-46
2023/05/10 10:08:28;;;;;;;1.48;1.00;;;17.50;63.50;;;;;;4980443;28;20058;-45
2023/05/10 10:10:55;;;;;;;0.70;0.68;;;17.50;64.10;;;;;;4979396;28;20057;-46
2023/05/10 10:13:23;;;;;;;2.30;1.00;;;17.60;64.70;;;;;;4980166;28;20414;-44
2023/05/10 10:15:51;;;;;;;1.42;0.90;;;17.60;64.90;;;;;;4978148;28;20054;-47
2023/05/10 10:18:23;;;;;;;0.95;0.90;;;17.70;64.90;;;;;;4982194;28;20061;-44
2023/05/10 10:20:52;;;;;;;0.88;0.85;;;17.80;64.90;;;;;;4981806;28;20050;-46
2023/05/10 10:23:19;;;;;;;1.25;0.98;;;17.90;65.10;;;;;;4978740;28;20054;-45
2023/05/10 10:25:48;;;;;;;1.20;0.88;;;18.00;65.10;;;;;;4982119;28;20508;-46
2023/05/10 10:28:25;;;;;;;1.30;1.05;;;18.10;64.90;;;;;;4974042;28;20059;-44
2023/05/10 10:30:55;;;;;;;1.20;0.90;;;18.20;64.60;;;;;;4982373;28;20065;-46
2023/05/10 10:33:44;;;;;;;1.20;0.88;;;18.30;64.80;;;;;;4983447;28;20054;-45
2023/05/10 10:36:13;;;;;;;1.17;1.08;;;18.40;64.70;;;;;;4983527;28;20513;-46
2023/05/10 10:39:03;;;;;;;1.20;0.85;;;18.50;64.50;;;;;;4981907;28;20058;-48
2023/05/10 10:41:33;;;;;;;1.88;1.05;;;18.60;63.80;;;;;;4983511;28;20054;-47
2023/05/10 10:44:37;;;;;;;2.78;1.20;;;18.70;63.90;;;;;;4980097;28;20054;-45
2023/05/10 10:47:11;;;;;;;1.80;1.20;;;18.80;63.10;;;;;;4979874;28;20510;-45
2023/05/10 10:49:43;;;;;;;2.38;1.50;;;19.00;63.40;;;;;;4982853;28;20065;-45
2023/05/10 10:52:23;;;;;;;1.77;1.48;;;19.10;62.50;;;;;;4984014;28;20387;-47
2023/05/10 10:54:55;;;;;;;1.70;1.60;;;19.20;62.40;;;;;;4983470;28;20054;-47
2023/05/10 10:57:22;;;;;;;1.55;1.40;;;19.20;60.70;;;;;;4978679;28;20388;-45
2023/05/10 10:59:50;;;;;;;2.47;1.40;;;19.20;60.10;;;;;;4982358;28;21592;-47
2023/05/10 11:02:46;;;;;;;2.55;2.03;;;19.20;60.00;;;;;;4982581;28;20058;-45
2023/05/10 11:05:44;;;;;;;2.75;2.25;;;19.10;59.80;;;;;;4983760;28;20382;-45
2023/05/10 11:08:17;;;;;;;7.93;4.22;;;19.10;60.10;;;;;;4983873;28;20065;-45
2023/05/10 11:10:53;;;;;;;8.48;5.22;;;19.10;60.50;;;;;;4982154;28;20054;-47
2023/05/10 11:13:30;;;;;;;9.48;5.32;;;19.10;59.70;;;;;;4982803;28;20062;-46
2023/05/10 11:15:58;;;;;;;14.30;6.40;;;19.00;60.00;;;;;;4979619;28;20062;-47
2023/05/10 11:18:27;;;;;;;11.70;7.05;;;18.90;59.30;;;;;;4983546;28;20062;-46
2023/05/10 11:20:58;;;;;;;11.32;7.10;;;18.80;58.80;;;;;;4982018;28;20065;-46
2023/05/10 11:23:31;;;;;;;15.18;7.20;;;18.70;58.90;;;;;;4983019;28;20054;-45
2023/05/10 11:25:58;;;;;;;14.40;7.53;;;18.60;59.20;;;;;;4982180;28;20077;-45
2023/05/10 11:28:27;;;;;;;8.55;5.57;;;18.50;59.70;;;;;;4982924;28;20100;-45
2023/05/10 11:30:56;;;;;;;8.80;5.35;;;18.40;60.00;;;;;;4979926;28;20092;-45
2023/05/10 11:33:23;;;;;;;7.60;5.25;;;18.40;60.10;;;;;;4983691;28;20062;-45
2023/05/10 11:35:50;;;;;;;7.82;5.03;;;18.30;60.40;;;;;;4980781;28;20505;-44
2023/05/10 11:38:18;;;;;;;9.20;5.38;;;18.30;60.70;;;;;;4983229;28;20054;-45
2023/05/10 11:40:46;;;;;;;9.73;5.97;;;18.40;61.20;;;;;;4983107;28;20394;-45
2023/05/10 11:43:14;;;;;;;9.02;5.15;;;18.40;60.90;;;;;;4982898;28;20062;-46
2023/05/10 11:45:42;;;;;;;7.95;4.80;;;18.40;60.40;;;;;;4979875;28;20388;-47
2023/05/10 11:48:09;;;;;;;7.72;5.00;;;18.40;60.50;;;;;;4982086;28;20058;-47
2023/05/10 11:50:36;;;;;;;6.38;4.88;;;18.50;60.60;;;;;;4982752;28;20845;-46
2023/05/10 11:53:04;;;;;;;7.68;5.40;;;18.50;60.80;;;;;;4982612;28;20051;-47
2023/05/10 11:55:34;;;;;;;5.55;4.43;;;18.50;60.90;;;;;;4979651;28;20065;-45
2023/05/10 11:58:03;;;;;;;6.38;4.68;;;18.60;61.20;;;;;;4981394;28;20054;-45
2023/05/10 12:00:31;;;;;;;6.45;4.45;;;18.60;61.10;;;;;;4981371;28;20367;-46
2023/05/10 12:02:59;;;;;;;6.25;4.30;;;18.60;61.00;;;;;;4981677;28;20058;-47
2023/05/10 12:05:26;;;;;;;6.28;3.42;;;18.60;61.30;;;;;;4982501;28;20058;-47
2023/05/10 12:07:53;;;;;;;7.72;4.07;;;18.70;61.30;;;;;;4980628;28;20062;-47
2023/05/10 12:10:27;;;;;;;5.45;3.72;;;18.80;61.30;;;;;;4979789;28;20062;-46
2023/05/10 12:12:54;;;;;;;7.30;3.30;;;18.80;60.90;;;;;;4980870;28;20070;-45
2023/05/10 12:15:24;;;;;;;2.63;2.15;;;18.90;60.00;;;;;;4973911;28;20073;-47
2023/05/10 12:17:52;;;;;;;3.58;2.55;;;18.90;59.60;;;;;;4979394;28;20081;-51
2023/05/10 12:20:21;;;;;;;4.75;2.20;;;18.90;59.50;;;;;;4977774;28;20050;-49
2023/05/10 12:22:51;;;;;;;4.65;2.20;;;18.90;59.60;;;;;;4976740;28;20356;-48
2023/05/10 12:25:19;;;;;;;2.28;2.05;;;18.90;59.40;;;;;;4976202;28;20635;-50
2023/05/10 12:27:53;;;;;;;2.92;2.42;;;18.90;59.70;;;;;;4972633;28;20057;-48
2023/05/10 12:30:23;;;;;;;4.07;2.55;;;18.90;60.20;;;;;;4974994;28;20062;-48
2023/05/10 12:32:51;;;;;;;2.72;2.45;;;18.90;60.60;;;;;;4974089;28;20093;-49
2023/05/10 12:35:21;;;;;;;4.55;2.17;;;18.90;60.90;;;;;;4977269;28;20506;-45
2023/05/10 12:37:49;;;;;;;5.95;2.83;;;19.00;61.30;;;;;;4977816;28;20058;-48
2023/05/10 12:40:16;;;;;;;2.17;1.98;;;19.00;61.40;;;;;;4978666;28;20058;-48
2023/05/10 12:42:44;;;;;;;1.90;1.67;;;19.10;59.10;;;;;;4974641;28;20689;-46
2023/05/10 12:45:12;;;;;;;2.00;1.70;;;19.20;58.70;;;;;;4975970;28;20054;-47
2023/05/10 12:47:40;;;;;;;2.22;1.73;;;19.10;59.40;;;;;;4976520;28;20054;-46
2023/05/10 12:50:08;;;;;;;1.52;1.42;;;19.10;58.50;;;;;;4977288;28;20062;-46
2023/05/10 12:52:36;;;;;;;2.05;1.38;;;19.10;58.70;;;;;;4979586;28;20065;-46
2023/05/10 12:55:03;;;;;;;2.17;1.90;;;19.10;58.20;;;;;;4977443;28;20050;-48